Time;durP1;ratioP1;P1;durP2;ratioP2;P2;SDS_P1;SDS_P2;PMS_P1;PMS_P2;Temp;Humidity;BMP_temperature;BMP_pressure;BME280_temperature;BME280_humidity;BME280_pressure;Samples;Min_cycle;Max_cycle;Signal;HPM_P1;HPM_P2
2022/07/17 00:00:58;;;;;;;7.70;2.40;;;;;;;15.88;62.97;102443.09;3599597;39;20471;-61
2022/07/17 00:03:23;;;;;;;4.65;2.30;;;;;;;15.83;63.06;102445.25;3599643;39;20050;-60
2022/07/17 00:05:49;;;;;;;6.10;2.10;;;;;;;15.79;62.91;102449.06;3600500;39;20103;-61
2022/07/17 00:08:15;;;;;;;3.92;2.25;;;;;;;15.73;63.39;102444.00;3598789;39;20048;-61
2022/07/17 00:10:43;;;;;;;5.88;2.53;;;;;;;15.33;63.00;102384.78;3599674;39;20413;-61
2022/07/17 00:13:10;;;;;;;6.30;2.53;;;;;;;15.65;63.19;102451.69;3598831;39;20390;-61
2022/07/17 00:15:36;;;;;;;9.32;2.45;;;;;;;15.63;63.11;102459.00;3594427;39;20112;-62
2022/07/17 00:18:03;;;;;;;9.75;2.05;;;;;;;15.62;63.41;102457.28;3600218;39;20130;-62
2022/07/17 00:20:29;;;;;;;7.10;2.60;;;;;;;15.64;63.10;102460.78;3598359;39;20053;-61
2022/07/17 00:22:56;;;;;;;7.10;2.38;;;;;;;15.63;63.44;102454.47;3587740;39;20088;-62
2022/07/17 00:25:22;;;;;;;5.57;2.63;;;;;;;15.65;63.23;102459.81;3597612;39;20051;-61
2022/07/17 00:27:48;;;;;;;6.55;2.30;;;;;;;15.64;63.14;102455.38;3598527;39;20072;-61
2022/07/17 00:30:14;;;;;;;11.48;2.63;;;;;;;15.63;63.06;102459.88;3600704;39;20074;-61
2022/07/17 00:32:41;;;;;;;4.72;2.42;;;;;;;15.65;62.65;102457.09;3599956;39;20067;-61
2022/07/17 00:35:07;;;;;;;5.57;2.67;;;;;;;15.63;62.49;102446.34;3598701;39;20063;-61
2022/07/17 00:37:42;;;;;;;5.82;2.67;;;;;;;15.62;62.16;102454.56;3600085;39;20055;-63
2022/07/17 00:40:11;;;;;;;4.47;2.78;;;;;;;15.55;62.50;102454.91;3601413;39;20051;-62
2022/07/17 00:42:41;;;;;;;7.22;2.83;;;;;;;15.58;62.28;102455.72;3599346;39;20113;-62
2022/07/17 00:45:12;;;;;;;6.10;2.65;;;;;;;15.58;62.28;102453.00;3601565;39;20432;-62
2022/07/17 00:47:56;;;;;;;4.03;2.58;;;;;;;15.60;62.34;102459.19;3598114;39;20052;-62
2022/07/17 00:50:26;;;;;;;5.75;2.53;;;;;;;15.57;62.34;102454.81;3598301;39;20132;-62
2022/07/17 00:52:52;;;;;;;5.65;2.90;;;;;;;15.54;62.58;102455.88;3599255;39;20111;-62
2022/07/17 00:55:19;;;;;;;6.53;2.55;;;;;;;15.42;62.41;102443.03;3600680;39;20059;-61
2022/07/17 00:57:48;;;;;;;8.23;3.03;;;;;;;15.49;62.20;102457.97;3598435;39;20089;-61
2022/07/17 01:00:16;;;;;;;10.60;3.03;;;;;;;15.43;62.49;102443.91;3596877;39;20079;-61
2022/07/17 01:02:49;;;;;;;8.10;2.70;;;;;;;15.43;62.71;102444.75;3598224;39;20133;-62
2022/07/17 01:05:18;;;;;;;9.30;3.08;;;;;;;15.40;62.62;102444.94;3599295;39;20378;-61
2022/07/17 01:07:44;;;;;;;5.97;2.97;;;;;;;15.37;62.47;102441.53;3598887;39;20075;-61
2022/07/17 01:10:12;;;;;;;12.90;2.90;;;;;;;15.38;62.50;102444.16;3597743;39;20396;-62
2022/07/17 01:12:40;;;;;;;8.70;2.92;;;;;;;15.36;62.77;102442.50;3597738;39;20099;-62
2022/07/17 01:15:08;;;;;;;6.95;2.88;;;;;;;15.32;62.95;102439.09;3600202;39;20070;-61
2022/07/17 01:17:35;;;;;;;8.63;3.35;;;;;;;15.31;62.95;102437.31;3598503;39;20059;-61
2022/07/17 01:20:07;;;;;;;13.13;3.60;;;;;;;15.27;63.25;102438.47;3599225;39;20062;-61
2022/07/17 01:22:45;;;;;;;6.13;2.95;;;;;;;15.29;63.53;102445.53;3597001;39;20051;-61
2022/07/17 01:25:14;;;;;;;5.63;3.13;;;;;;;15.27;63.22;102442.03;3599120;39;20058;-61
2022/07/17 01:27:40;;;;;;;3.97;3.10;;;;;;;15.25;63.38;102443.06;3598492;39;20136;-61
2022/07/17 01:30:08;;;;;;;5.75;2.90;;;;;;;14.92;63.78;102392.53;3600130;39;20421;-62
2022/07/17 01:32:40;;;;;;;11.25;3.42;;;;;;;15.13;64.00;102441.03;3597341;39;20048;-61
2022/07/17 01:35:08;;;;;;;6.85;3.63;;;;;;;15.07;64.48;102440.44;3599523;39;20060;-62
2022/07/17 01:37:35;;;;;;;13.07;3.47;;;;;;;15.02;64.31;102433.53;3598783;39;20120;-62
2022/07/17 01:40:01;;;;;;;5.03;2.72;;;;;;;15.01;64.83;102431.78;3599539;39;20051;-62
2022/07/17 01:42:28;;;;;;;7.03;3.38;;;;;;;14.97;64.84;102431.09;3598030;39;20047;-62
2022/07/17 01:44:55;;;;;;;9.15;3.38;;;;;;;14.93;65.22;102432.19;3597858;39;20160;-62
2022/07/17 01:47:21;;;;;;;7.38;3.30;;;;;;;14.91;65.47;102428.69;3592558;39;20383;-62
2022/07/17 01:49:51;;;;;;;7.38;2.90;;;;;;;14.85;65.39;102432.63;3598156;39;20048;-62
2022/07/17 01:52:18;;;;;;;5.43;3.13;;;;;;;14.87;65.62;102429.81;3597576;39;20393;-62
2022/07/17 01:54:44;;;;;;;6.28;2.85;;;;;;;14.86;64.99;102439.75;3598108;39;20055;-62
2022/07/17 01:57:12;;;;;;;4.82;3.05;;;;;;;14.84;65.55;102446.22;3599660;39;20062;-61
2022/07/17 01:59:39;;;;;;;7.10;2.75;;;;;;;14.82;65.33;102448.16;3598997;39;20309;-62
2022/07/17 02:02:07;;;;;;;6.65;2.92;;;;;;;14.79;65.08;102442.91;3600440;39;20067;-62
2022/07/17 02:04:35;;;;;;;5.53;2.75;;;;;;;14.76;65.64;102451.19;3599566;39;20073;-62
2022/07/17 02:07:01;;;;;;;6.88;3.20;;;;;;;14.72;65.60;102457.72;3599164;39;20310;-62
2022/07/17 02:09:26;;;;;;;6.63;3.05;;;;;;;14.71;65.32;102453.25;3590127;39;20063;-62
2022/07/17 02:11:52;;;;;;;8.13;2.92;;;;;;;14.71;65.52;102450.53;3600721;39;20071;-62
2022/07/17 02:14:18;;;;;;;7.13;3.33;;;;;;;14.68;65.52;102448.00;3603320;39;20321;-62
2022/07/17 02:16:44;;;;;;;6.80;3.42;;;;;;;14.63;65.93;102440.13;3599178;39;20382;-62
2022/07/17 02:19:11;;;;;;;6.90;3.10;;;;;;;14.61;65.78;102442.03;3600174;39;20073;-62
2022/07/17 02:21:37;;;;;;;6.75;2.75;;;;;;;14.60;65.77;102441.16;3598989;39;20052;-62
2022/07/17 02:24:03;;;;;;;6.47;3.20;;;;;;;14.59;65.90;102439.44;3601332;39;20432;-61
2022/07/17 02:26:28;;;;;;;5.60;3.03;;;;;;;14.58;66.08;102443.06;3600416;39;20071;-62
2022/07/17 02:28:54;;;;;;;5.18;3.17;;;;;;;14.57;65.92;102451.28;3599040;39;20090;-63
2022/07/17 02:31:20;;;;;;;8.82;3.50;;;;;;;14.55;65.89;102448.66;3600235;39;20137;-62
2022/07/17 02:33:46;;;;;;;10.68;3.40;;;;;;;14.54;66.20;102441.50;3598090;39;20055;-62
2022/07/17 02:36:12;;;;;;;7.85;3.55;;;;;;;14.51;66.17;102441.66;3601944;39;20070;-62
2022/07/17 02:38:37;;;;;;;5.10;3.03;;;;;;;14.49;66.12;102440.81;3598960;39;20082;-62
2022/07/17 02:41:03;;;;;;;6.20;3.08;;;;;;;14.50;66.13;102439.88;3598819;39;20051;-62
2022/07/17 02:43:29;;;;;;;8.10;3.22;;;;;;;14.48;66.40;102444.47;3598933;39;20056;-63
2022/07/17 02:45:54;;;;;;;4.78;3.10;;;;;;;14.52;65.94;102443.38;3599952;39;20059;-63
2022/07/17 02:48:20;;;;;;;5.63;3.10;;;;;;;14.49;66.30;102435.41;3600322;39;20065;-64
2022/07/17 02:50:45;;;;;;;5.85;3.53;;;;;;;14.26;66.36;102397.88;3598913;39;20072;-64
2022/07/17 02:53:11;;;;;;;7.10;3.35;;;;;;;14.38;66.76;102430.56;3602667;39;20062;-63
2022/07/17 02:55:37;;;;;;;6.28;3.30;;;;;;;14.15;66.98;102393.91;3600271;39;20059;-64
2022/07/17 02:58:03;;;;;;;4.65;3.50;;;;;;;14.34;66.53;102430.81;3600042;39;20059;-63
2022/07/17 03:00:29;;;;;;;8.63;3.25;;;;;;;14.29;66.81;102427.47;3599560;39;20128;-62
2022/07/17 03:02:57;;;;;;;8.57;3.58;;;;;;;14.26;67.08;102427.63;3599646;39;20055;-62
2022/07/17 03:05:23;;;;;;;8.73;4.00;;;;;;;14.17;67.35;102423.56;3599993;39;20340;-62
2022/07/17 03:07:49;;;;;;;8.73;3.72;;;;;;;14.19;67.47;102437.88;3589114;39;20075;-62
2022/07/17 03:10:15;;;;;;;9.52;3.35;;;;;;;14.13;67.00;102433.66;3600265;39;20091;-62
2022/07/17 03:12:42;;;;;;;6.18;3.53;;;;;;;14.11;67.50;102442.78;3599173;39;20126;-62
2022/07/17 03:15:09;;;;;;;6.22;3.42;;;;;;;14.09;67.34;102450.13;3600583;39;20453;-62
2022/07/17 03:17:35;;;;;;;7.38;3.53;;;;;;;14.08;67.57;102453.78;3598098;39;20047;-62
2022/07/17 03:20:01;;;;;;;5.22;3.42;;;;;;;14.06;67.57;102450.28;3599150;39;20055;-62
2022/07/17 03:22:27;;;;;;;8.98;3.55;;;;;;;14.06;67.51;102455.69;3599062;39;20047;-62
2022/07/17 03:24:52;;;;;;;5.55;3.70;;;;;;;14.04;67.61;102453.06;3598730;39;20047;-63
2022/07/17 03:27:18;;;;;;;7.40;3.45;;;;;;;14.01;67.56;102452.34;3600161;39;20517;-62
2022/07/17 03:29:45;;;;;;;9.13;3.20;;;;;;;13.99;67.47;102444.31;3597967;39;20123;-62
2022/07/17 03:32:10;;;;;;;4.55;3.05;;;;;;;13.96;67.54;102444.47;3600343;39;20306;-62
2022/07/17 03:34:38;;;;;;;7.22;3.65;;;;;;;13.88;68.14;102438.56;3599694;39;20058;-62
2022/07/17 03:37:04;;;;;;;7.47;3.60;;;;;;;13.89;68.56;102443.91;3598465;39;20060;-62
2022/07/17 03:39:30;;;;;;;5.90;3.60;;;;;;;13.89;68.21;102448.41;3599994;39;20043;-61
2022/07/17 03:41:56;;;;;;;7.82;3.50;;;;;;;13.88;68.20;102447.53;3599367;39;20062;-62
2022/07/17 03:44:22;;;;;;;7.15;3.72;;;;;;;13.86;68.62;102454.88;3600557;39;20059;-62
2022/07/17 03:46:48;;;;;;;4.55;3.45;;;;;;;13.85;68.21;102444.13;3600077;39;20068;-62
2022/07/17 03:49:14;;;;;;;7.13;3.42;;;;;;;13.85;68.24;102444.13;3602317;39;20055;-62
2022/07/17 03:51:40;;;;;;;7.25;3.45;;;;;;;13.81;68.78;102440.69;3600224;39;20067;-62
2022/07/17 03:54:05;;;;;;;7.50;3.65;;;;;;;13.80;68.97;102443.50;3599024;39;20054;-62
2022/07/17 03:56:31;;;;;;;7.57;3.72;;;;;;;13.80;68.76;102448.91;3599520;39;20147;-62
2022/07/17 03:58:56;;;;;;;6.68;3.40;;;;;;;13.80;68.59;102441.66;3596198;39;20059;-61
2022/07/17 04:01:22;;;;;;;6.13;3.40;;;;;;;13.79;68.28;102434.47;3599988;39;20065;-61
2022/07/17 04:03:47;;;;;;;5.72;3.60;;;;;;;13.81;68.40;102450.63;3599556;39;20047;-62
2022/07/17 04:06:13;;;;;;;7.25;4.05;;;;;;;13.79;68.37;102453.41;3601552;39;20063;-62
2022/07/17 04:08:39;;;;;;;8.02;3.60;;;;;;;13.79;68.33;102449.81;3600994;39;20361;-62
2022/07/17 04:11:04;;;;;;;8.35;3.67;;;;;;;13.81;68.56;102461.44;3598596;39;20062;-64
2022/07/17 04:13:30;;;;;;;11.25;4.10;;;;;;;13.77;69.19;102459.84;3599852;39;20116;-62
2022/07/17 04:15:56;;;;;;;8.75;3.78;;;;;;;13.75;69.63;102461.75;3599296;39;20063;-62
2022/07/17 04:18:32;;;;;;;6.50;3.60;;;;;;;13.76;69.21;102464.34;3600703;39;20319;-62
2022/07/17 04:21:04;;;;;;;7.95;4.10;;;;;;;13.80;69.15;102465.97;3600263;39;20108;-62
2022/07/17 04:23:30;;;;;;;8.60;3.90;;;;;;;13.80;69.53;102473.22;3600166;39;20050;-62
2022/07/17 04:25:55;;;;;;;7.07;3.80;;;;;;;13.63;69.46;102449.69;3598451;39;20384;-62
2022/07/17 04:28:21;;;;;;;9.20;3.97;;;;;;;13.63;69.30;102436.19;3598533;39;20287;-62
2022/07/17 04:30:48;;;;;;;6.38;3.83;;;;;;;13.82;69.27;102469.47;3600753;39;20121;-62
2022/07/17 04:33:14;;;;;;;10.48;4.13;;;;;;;13.86;69.60;102459.38;3597721;39;20059;-62
2022/07/17 04:35:40;;;;;;;9.85;4.32;;;;;;;13.89;69.12;102465.53;3598320;39;20128;-62
2022/07/17 04:38:07;;;;;;;6.78;3.72;;;;;;;13.91;68.92;102469.00;3600785;39;20064;-62
2022/07/17 04:40:35;;;;;;;8.93;4.18;;;;;;;13.96;69.16;102465.22;3600910;39;20559;-61
2022/07/17 04:43:02;;;;;;;11.48;4.30;;;;;;;14.03;68.87;102461.25;3599720;39;20093;-62
2022/07/17 04:45:28;;;;;;;8.90;4.00;;;;;;;14.06;68.70;102456.56;3601380;39;20087;-62
2022/07/17 04:47:54;;;;;;;6.25;3.80;;;;;;;14.13;68.44;102457.13;3597330;39;20339;-62
2022/07/17 04:50:20;;;;;;;7.63;3.95;;;;;;;14.14;68.27;102454.38;3600408;39;20058;-62
2022/07/17 04:52:46;;;;;;;7.47;4.22;;;;;;;14.15;67.81;102461.50;3599148;39;20051;-61
2022/07/17 04:55:12;;;;;;;7.47;4.05;;;;;;;14.26;67.45;102473.59;3599735;39;20063;-61
2022/07/17 04:57:38;;;;;;;7.65;4.35;;;;;;;14.22;67.58;102461.19;3600304;39;20054;-61
2022/07/17 05:00:08;;;;;;;9.48;4.30;;;;;;;14.31;67.94;102476.97;3598877;39;20095;-62
2022/07/17 05:02:34;;;;;;;6.45;4.05;;;;;;;14.32;67.81;102485.00;3599742;39;20062;-62
2022/07/17 05:05:01;;;;;;;9.73;4.07;;;;;;;14.35;67.99;102489.38;3598475;39;20071;-62
2022/07/17 05:07:26;;;;;;;7.60;4.28;;;;;;;14.41;67.42;102494.47;3599220;39;20060;-61
2022/07/17 05:09:52;;;;;;;6.68;4.10;;;;;;;14.43;67.46;102480.84;3593690;39;20079;-61
2022/07/17 05:12:19;;;;;;;8.75;4.00;;;;;;;14.25;67.09;102444.81;3601775;39;20059;-61
2022/07/17 05:14:45;;;;;;;6.70;4.00;;;;;;;14.56;66.55;102484.72;3596824;39;20670;-61
2022/07/17 05:17:12;;;;;;;9.45;3.83;;;;;;;14.59;66.81;102482.72;3594875;39;20394;-62
2022/07/17 05:19:37;;;;;;;8.98;4.03;;;;;;;14.63;66.63;102473.50;3595415;39;20060;-61
2022/07/17 05:22:04;;;;;;;5.45;3.90;;;;;;;14.41;66.45;102424.13;3595421;39;20101;-62
2022/07/17 05:24:32;;;;;;;8.70;4.22;;;;;;;14.76;66.12;102472.84;3596032;39;20052;-60
2022/07/17 05:26:57;;;;;;;9.65;4.10;;;;;;;14.82;66.20;102469.81;3594424;39;20078;-62
2022/07/17 05:29:24;;;;;;;5.43;3.80;;;;;;;14.89;65.93;102479.34;3595608;39;20379;-62
2022/07/17 05:31:49;;;;;;;10.73;3.92;;;;;;;14.92;65.95;102476.47;3595484;39;20066;-61
2022/07/17 05:34:15;;;;;;;7.07;3.88;;;;;;;14.93;65.67;102488.19;3598750;39;20093;-61
2022/07/17 05:36:41;;;;;;;8.55;3.90;;;;;;;14.95;65.36;102484.44;3602061;39;20376;-61
2022/07/17 05:39:08;;;;;;;8.15;4.10;;;;;;;15.00;65.42;102486.88;3599618;39;20479;-62
2022/07/17 05:41:34;;;;;;;6.80;3.60;;;;;;;15.04;65.51;102477.66;3601102;39;20133;-62
2022/07/17 05:43:59;;;;;;;7.47;3.90;;;;;;;15.10;65.63;102482.75;3600158;39;20067;-62
2022/07/17 05:46:25;;;;;;;8.13;3.47;;;;;;;15.09;64.77;102489.09;3600471;39;20409;-62
2022/07/17 05:48:51;;;;;;;6.93;3.80;;;;;;;15.13;64.53;102476.25;3599271;39;20051;-62
2022/07/17 05:51:17;;;;;;;10.80;3.60;;;;;;;15.22;64.02;102470.34;3598558;39;20401;-61
2022/07/17 05:53:42;;;;;;;5.47;3.65;;;;;;;15.27;64.44;102484.53;3599158;39;20062;-61
2022/07/17 05:56:08;;;;;;;12.55;3.88;;;;;;;15.31;64.46;102491.50;3597702;39;20070;-61
2022/07/17 05:58:33;;;;;;;7.85;4.20;;;;;;;15.39;64.63;102478.44;3598854;39;20051;-61
2022/07/17 06:00:59;;;;;;;7.68;3.88;;;;;;;15.44;64.41;102479.03;3598409;39;20424;-62
2022/07/17 06:03:24;;;;;;;8.57;4.57;;;;;;;15.56;64.23;102482.88;3599329;39;20416;-62
2022/07/17 06:05:50;;;;;;;6.97;4.03;;;;;;;15.66;64.05;102475.09;3600111;39;20047;-62
2022/07/17 06:08:16;;;;;;;7.15;4.18;;;;;;;15.83;63.59;102469.66;3599673;39;20382;-62
2022/07/17 06:10:41;;;;;;;5.65;4.18;;;;;;;15.78;63.94;102440.06;3598346;39;20058;-62
2022/07/17 06:13:07;;;;;;;9.13;4.30;;;;;;;15.93;62.85;102457.28;3599778;39;20377;-62
2022/07/17 06:15:32;;;;;;;12.70;4.78;;;;;;;15.97;62.78;102453.44;3598429;39;20048;-62
2022/07/17 06:18:03;;;;;;;6.35;4.55;;;;;;;16.04;62.12;102461.19;3595797;39;20063;-62
2022/07/17 06:20:30;;;;;;;11.02;4.78;;;;;;;16.17;62.37;102460.38;3602270;39;20052;-62
2022/07/17 06:22:56;;;;;;;8.73;4.50;;;;;;;16.33;62.04;102454.91;3596317;39;20101;-63
2022/07/17 06:25:21;;;;;;;6.68;3.60;;;;;;;16.35;61.06;102431.28;3597481;39;20059;-63
2022/07/17 06:27:47;;;;;;;7.07;4.00;;;;;;;16.61;60.29;102459.53;3594689;39;20171;-63
2022/07/17 06:30:15;;;;;;;5.40;3.47;;;;;;;16.82;60.20;102453.81;3596704;39;20059;-62
2022/07/17 06:32:42;;;;;;;6.55;3.28;;;;;;;16.98;59.10;102468.16;3595957;39;20054;-62
2022/07/17 06:35:09;;;;;;;9.05;3.42;;;;;;;16.56;58.69;102369.38;3596057;39;20056;-62
2022/07/17 06:37:35;;;;;;;7.30;3.72;;;;;;;17.28;58.20;102476.22;3596097;39;20105;-62
2022/07/17 06:40:03;;;;;;;6.45;3.08;;;;;;;17.53;57.17;102478.22;3596430;39;20083;-63
2022/07/17 06:42:29;;;;;;;10.25;3.45;;;;;;;17.69;57.38;102478.09;3596205;39;20083;-63
2022/07/17 06:44:55;;;;;;;7.00;3.00;;;;;;;17.84;56.14;102484.41;3594565;39;20063;-63
2022/07/17 06:47:20;;;;;;;8.07;3.15;;;;;;;18.03;55.58;102501.25;3597312;39;20481;-63
2022/07/17 06:49:46;;;;;;;7.50;3.13;;;;;;;18.23;55.75;102497.19;3595624;39;20306;-63
2022/07/17 06:52:12;;;;;;;6.00;2.95;;;;;;;18.40;54.73;102497.94;3594277;39;20051;-63
2022/07/17 06:54:37;;;;;;;9.73;3.22;;;;;;;18.58;54.71;102495.75;3598459;39;20047;-63
2022/07/17 06:57:03;;;;;;;7.40;2.75;;;;;;;18.68;54.33;102492.31;3596200;39;20397;-63
2022/07/17 06:59:29;;;;;;;7.65;3.00;;;;;;;18.82;52.84;102495.97;3597182;39;20071;-63
2022/07/17 07:01:55;;;;;;;5.75;2.60;;;;;;;19.04;51.00;102508.94;3595616;39;20383;-63
2022/07/17 07:04:20;;;;;;;5.70;2.65;;;;;;;19.17;51.91;102510.69;3596106;39;20074;-64
2022/07/17 07:06:46;;;;;;;5.50;2.50;;;;;;;19.10;51.06;102471.22;3596944;39;20047;-64
2022/07/17 07:09:11;;;;;;;4.72;2.75;;;;;;;19.53;49.81;102517.19;3597213;39;20414;-64
2022/07/17 07:11:39;;;;;;;5.63;2.60;;;;;;;19.74;50.68;102509.31;3596006;39;20055;-64
2022/07/17 07:14:06;;;;;;;7.28;3.20;;;;;;;19.90;50.56;102515.38;3596200;39;20091;-64
2022/07/17 07:16:32;;;;;;;5.53;3.03;;;;;;;20.13;49.11;102520.97;3595555;39;20147;-64
2022/07/17 07:18:57;;;;;;;8.10;3.17;;;;;;;20.32;48.98;102517.72;3594675;39;20051;-61
2022/07/17 07:21:25;;;;;;;7.50;2.75;;;;;;;20.51;48.70;102531.72;3595778;39;20443;-62
2022/07/17 07:23:51;;;;;;;7.72;3.50;;;;;;;20.23;49.41;102459.19;3594888;39;20366;-62
2022/07/17 07:26:16;;;;;;;7.38;3.70;;;;;;;20.70;47.78;102522.13;3596000;39;20058;-62
2022/07/17 07:28:42;;;;;;;7.22;3.30;;;;;;;20.48;48.47;102480.03;3598089;39;20938;-62
2022/07/17 07:31:10;;;;;;;5.95;3.00;;;;;;;20.81;48.01;102516.69;3595687;39;20371;-62
2022/07/17 07:33:36;;;;;;;7.15;2.88;;;;;;;20.97;47.24;102506.28;3594793;39;20070;-63
2022/07/17 07:36:03;;;;;;;5.75;3.08;;;;;;;20.86;46.86;102459.78;3594380;39;20066;-65
2022/07/17 07:38:28;;;;;;;4.90;2.90;;;;;;;21.39;46.47;102503.88;3596448;39;20055;-64
2022/07/17 07:40:54;;;;;;;9.88;3.20;;;;;;;21.56;46.12;102506.06;3595146;39;20412;-63
2022/07/17 07:43:20;;;;;;;5.25;2.80;;;;;;;21.62;45.31;102512.06;3595625;39;20055;-64
2022/07/17 07:45:46;;;;;;;9.10;3.03;;;;;;;21.68;45.14;102511.56;3589887;39;20662;-64
2022/07/17 07:48:11;;;;;;;7.28;2.50;;;;;;;21.64;44.60;102521.88;3586404;39;20061;-64
2022/07/17 07:50:37;;;;;;;5.18;2.45;;;;;;;21.64;45.20;102529.22;3595656;39;20405;-65
2022/07/17 07:53:02;;;;;;;4.50;2.25;;;;;;;21.85;44.84;102523.84;3598069;39;20067;-65
2022/07/17 07:55:28;;;;;;;5.50;2.42;;;;;;;21.91;45.58;102517.84;3595912;39;20070;-65
2022/07/17 07:58:12;;;;;;;7.25;2.88;;;;;;;21.99;44.33;102524.44;3595441;39;20047;-65
2022/07/17 08:00:42;;;;;;;8.55;2.70;;;;;;;22.17;43.45;102523.91;3597716;39;20773;-64
2022/07/17 08:03:08;;;;;;;4.32;2.10;;;;;;;21.99;43.67;102487.97;3595958;39;20055;-64
2022/07/17 08:05:34;;;;;;;6.10;2.00;;;;;;;22.23;42.43;102512.44;3595037;39;20056;-65
2022/07/17 08:08:00;;;;;;;4.88;1.95;;;;;;;22.33;42.20;102518.91;3595638;39;20067;-65
2022/07/17 08:10:26;;;;;;;4.38;1.88;;;;;;;22.02;42.75;102477.63;3596171;39;20394;-65
2022/07/17 08:12:51;;;;;;;4.55;2.05;;;;;;;22.34;42.80;102525.25;3594524;39;20434;-65
2022/07/17 08:15:20;;;;;;;4.30;2.33;;;;;;;22.55;43.19;102534.38;3598698;39;20372;-64
2022/07/17 08:17:49;;;;;;;7.57;2.30;;;;;;;22.80;43.71;102532.25;3595658;39;20063;-64
2022/07/17 08:20:16;;;;;;;4.57;1.92;;;;;;;22.90;43.02;102516.75;3597441;39;20057;-64
2022/07/17 08:22:44;;;;;;;4.63;2.75;;;;;;;23.16;42.60;102534.56;3595918;39;20589;-64
2022/07/17 08:25:11;;;;;;;5.05;2.33;;;;;;;23.19;41.42;102521.56;3595192;39;20125;-64
2022/07/17 08:27:40;;;;;;;4.45;2.30;;;;;;;23.33;41.84;102530.28;3595628;39;20064;-63
2022/07/17 08:30:09;;;;;;;6.28;2.60;;;;;;;23.54;42.72;102532.16;3596592;39;20073;-64
2022/07/17 08:32:36;;;;;;;5.10;2.67;;;;;;;23.54;41.11;102532.16;3594919;39;20052;-66
2022/07/17 08:35:02;;;;;;;5.03;2.38;;;;;;;23.60;40.64;102532.44;3585840;39;20064;-64
2022/07/17 08:37:29;;;;;;;7.18;2.60;;;;;;;23.73;41.86;102526.75;3596826;39;20059;-64
2022/07/17 08:39:55;;;;;;;3.92;2.30;;;;;;;23.80;39.21;102529.81;3597608;39;20055;-66
2022/07/17 08:42:22;;;;;;;4.95;1.92;;;;;;;24.09;39.43;102524.38;3597409;39;20051;-64
2022/07/17 08:44:47;;;;;;;4.10;2.10;;;;;;;24.31;38.79;102524.09;3594673;39;20066;-64
2022/07/17 08:47:15;;;;;;;4.72;2.00;;;;;;;24.38;38.11;102516.16;3593668;39;20628;-64
2022/07/17 08:49:46;;;;;;;6.88;2.17;;;;;;;24.32;38.87;102523.09;3597508;39;20091;-63
2022/07/17 08:52:13;;;;;;;3.58;2.03;;;;;;;24.32;38.29;102523.09;3596216;39;20075;-64
2022/07/17 08:54:41;;;;;;;6.50;1.90;;;;;;;24.58;38.69;102524.44;3598535;39;20067;-63
2022/07/17 08:57:09;;;;;;;2.78;1.40;;;;;;;24.65;37.86;102522.84;3596045;39;20052;-64
2022/07/17 08:59:35;;;;;;;10.93;1.95;;;;;;;24.63;37.07;102516.63;3596145;39;20492;-63
2022/07/17 09:02:01;;;;;;;4.63;1.40;;;;;;;24.73;36.55;102523.84;3596708;39;20071;-64
2022/07/17 09:04:27;;;;;;;3.08;1.95;;;;;;;24.74;38.49;102522.84;3597748;39;20326;-64
2022/07/17 09:07:05;;;;;;;6.28;1.48;;;;;;;24.84;36.85;102522.81;3599152;39;20063;-64
2022/07/17 09:09:35;;;;;;;4.57;1.73;;;;;;;25.05;36.59;102522.63;3596389;39;20047;-65
2022/07/17 09:12:05;;;;;;;2.65;1.73;;;;;;;25.07;36.92;102516.97;3600590;39;20424;-64
2022/07/17 09:14:40;;;;;;;2.90;1.60;;;;;;;25.09;36.36;102526.84;3599107;39;20051;-65
2022/07/17 09:17:10;;;;;;;5.00;1.70;;;;;;;25.14;36.72;102507.13;3597936;39;20109;-66
2022/07/17 09:19:45;;;;;;;5.32;1.85;;;;;;;25.20;36.10;102512.91;3598542;39;20051;-64
2022/07/17 09:22:22;;;;;;;5.45;1.95;;;;;;;25.48;34.65;102500.06;3598579;39;20055;-66
2022/07/17 09:24:58;;;;;;;3.45;1.42;;;;;;;25.81;33.34;102516.16;3600455;39;20457;-65
2022/07/17 09:27:23;;;;;;;4.03;1.38;;;;;;;25.90;35.26;102515.22;3599725;39;20103;-65
2022/07/17 09:30:03;;;;;;;4.63;1.52;;;;;;;25.94;35.50;102505.63;3599890;39;20066;-66
2022/07/17 09:32:35;;;;;;;3.72;1.70;;;;;;;26.16;35.09;102515.34;3597583;39;20450;-65
2022/07/17 09:35:04;;;;;;;4.97;1.70;;;;;;;26.38;35.08;102514.00;3601353;39;20317;-65
2022/07/17 09:37:32;;;;;;;3.47;1.50;;;;;;;26.57;34.01;102513.88;3598825;39;20113;-66
2022/07/17 09:39:58;;;;;;;3.30;1.73;;;;;;;26.65;33.94;102510.31;3598467;39;20063;-65
2022/07/17 09:42:33;;;;;;;3.38;1.75;;;;;;;26.61;35.06;102509.78;3596432;39;20294;-66
2022/07/17 09:45:01;;;;;;;5.25;1.83;;;;;;;26.67;35.37;102519.28;3597044;39;20064;-65
2022/07/17 09:47:29;;;;;;;2.88;1.60;;;;;;;26.79;33.59;102514.41;3597542;39;20059;-65
2022/07/17 09:49:57;;;;;;;3.65;1.80;;;;;;;26.61;34.93;102512.53;3596451;39;20067;-66
2022/07/17 09:52:27;;;;;;;6.13;1.85;;;;;;;26.65;35.29;102512.22;3595831;39;20047;-66
2022/07/17 09:54:54;;;;;;;2.70;1.58;;;;;;;26.77;32.87;102508.19;3597287;39;20052;-65
2022/07/17 09:57:26;;;;;;;5.43;1.63;;;;;;;26.90;32.59;102505.00;3595587;39;20614;-65
2022/07/17 09:59:58;;;;;;;3.05;1.50;;;;;;;26.84;31.13;102503.75;3595792;39;20120;-65
2022/07/17 10:02:24;;;;;;;3.50;1.50;;;;;;;27.03;32.47;102509.06;3596679;39;20124;-64
2022/07/17 10:04:52;;;;;;;2.35;1.45;;;;;;;27.16;31.15;102508.66;3596215;39;20058;-64
2022/07/17 10:07:19;;;;;;;12.30;1.80;;;;;;;27.15;32.89;102490.38;3587132;39;20046;-64
2022/07/17 10:09:45;;;;;;;1.40;1.30;;;;;;;27.29;31.01;102519.25;3594539;39;20052;-65
2022/07/17 10:12:13;;;;;;;5.38;1.50;;;;;;;27.36;29.39;102514.81;3585736;39;20047;-65
2022/07/17 10:14:41;;;;;;;5.30;2.03;;;;;;;27.47;31.42;102517.28;3595630;39;20480;-62
2022/07/17 10:17:14;;;;;;;3.80;1.70;;;;;;;27.65;32.98;102513.56;3597460;39;20362;-62
2022/07/17 10:19:57;;;;;;;3.85;1.70;;;;;;;27.86;29.59;102504.88;3596074;39;20062;-65
2022/07/17 10:22:24;;;;;;;3.42;1.50;;;;;;;27.93;29.15;102500.38;3597406;39;20051;-65
2022/07/17 10:24:54;;;;;;;5.10;1.55;;;;;;;27.86;32.22;102511.25;3596153;39;20067;-62
2022/07/17 10:27:27;;;;;;;4.30;1.98;;;;;;;27.95;30.21;102507.47;3596242;39;20120;-63
2022/07/17 10:30:09;;;;;;;4.03;1.80;;;;;;;27.94;28.67;102508.53;3598251;39;20081;-63
2022/07/17 10:32:36;;;;;;;3.63;1.60;;;;;;;28.12;28.49;102505.63;3597571;39;20047;-63
2022/07/17 10:35:11;;;;;;;4.07;1.80;;;;;;;28.24;28.62;102508.94;3597327;39;20398;-63
2022/07/17 10:37:36;;;;;;;4.78;1.60;;;;;;;28.22;30.82;102506.31;3599058;39;20417;-64
2022/07/17 10:40:18;;;;;;;3.50;1.50;;;;;;;28.17;27.28;102510.66;3597113;39;20110;-64
2022/07/17 10:42:57;;;;;;;3.33;1.50;;;;;;;28.34;29.37;102501.31;3596437;39;20063;-65
2022/07/17 10:45:35;;;;;;;2.45;1.45;;;;;;;28.37;29.20;102508.41;3600720;39;20047;-64
2022/07/17 10:48:08;;;;;;;3.22;1.40;;;;;;;28.39;28.48;102506.38;3597593;39;20059;-65
2022/07/17 10:50:45;;;;;;;3.42;1.70;;;;;;;28.41;28.22;102496.84;3599864;39;20047;-64
2022/07/17 10:53:26;;;;;;;5.45;1.38;;;;;;;28.57;29.96;102497.91;3596918;39;20465;-64
2022/07/17 10:56:08;;;;;;;4.88;1.77;;;;;;;28.57;28.65;102497.91;3599928;39;20048;-64
2022/07/17 10:58:41;;;;;;;4.50;1.75;;;;;;;28.75;28.35;102501.38;3599661;39;20060;-64
2022/07/17 11:01:12;;;;;;;4.75;2.03;;;;;;;28.76;27.92;102500.31;3598516;39;20413;-64
2022/07/17 11:03:50;;;;;;;4.72;1.83;;;;;;;28.75;29.82;102506.91;3599486;39;20062;-65
2022/07/17 11:06:30;;;;;;;4.25;1.73;;;;;;;28.82;29.00;102496.84;3596436;39;20059;-64
2022/07/17 11:09:08;;;;;;;5.97;2.00;;;;;;;28.91;28.71;102492.19;3597360;39;20698;-64
2022/07/17 11:11:44;;;;;;;4.13;1.83;;;;;;;28.85;29.82;102507.56;3598105;39;20351;-64
2022/07/17 11:14:26;;;;;;;6.00;2.10;;;;;;;28.95;28.92;102481.59;3598721;39;20156;-64
2022/07/17 11:17:02;;;;;;;5.20;1.83;;;;;;;29.22;27.82;102497.84;3598898;39;20049;-64
2022/07/17 11:19:34;;;;;;;4.90;1.90;;;;;;;29.06;27.50;102495.13;3599516;39;20409;-64
2022/07/17 11:22:04;;;;;;;5.68;2.50;;;;;;;28.90;30.05;102488.53;3597287;39;20052;-64
2022/07/17 11:24:47;;;;;;;5.07;1.98;;;;;;;29.11;28.59;102481.59;3590560;39;20055;-64
2022/07/17 11:27:28;;;;;;;3.38;1.88;;;;;;;29.23;26.93;102488.50;3599726;39;20405;-64